sensor_id;sensor_type;location;lat;lon;timestamp;pressure;altitude;pressure_sealevel;temperature;humidity
5996;BME280;3026;53.612;7.278;2023-01-28T00:02:01;102936.72;;;2.42;100.00
5996;BME280;3026;53.612;7.278;2023-01-28T00:04:29;102933.22;;;2.40;100.00
5996;BME280;3026;53.612;7.278;2023-01-28T00:06:56;102931.63;;;2.36;100.00
5996;BME280;3026;53.612;7.278;2023-01-28T00:09:23;102921.91;;;2.31;100.00
5996;BME280;3026;53.612;7.278;2023-01-28T00:11:49;102911.22;;;2.30;100.00
5996;BME280;3026;53.612;7.278;2023-01-28T00:14:17;102910.50;;;2.26;100.00
5996;BME280;3026;53.612;7.278;2023-01-28T00:16:44;102914.00;;;2.28;100.00
5996;BME280;3026;53.612;7.278;2023-01-28T00:19:11;102912.97;;;2.31;100.00
5996;BME280;3026;53.612;7.278;2023-01-28T00:21:39;102906.72;;;2.30;100.00
5996;BME280;3026;53.612;7.278;2023-01-28T00:24:06;102917.47;;;2.30;100.00
5996;BME280;3026;53.612;7.278;2023-01-28T00:26:34;102914.94;;;2.27;100.00
5996;BME280;3026;53.612;7.278;2023-01-28T00:29:01;102912.41;;;2.24;100.00
5996;BME280;3026;53.612;7.278;2023-01-28T00:31:28;102913.53;;;2.19;100.00
5996;BME280;3026;53.612;7.278;2023-01-28T00:33:56;102921.56;;;2.20;100.00
5996;BME280;3026;53.612;7.278;2023-01-28T00:36:24;102911.84;;;2.16;100.00
5996;BME280;3026;53.612;7.278;2023-01-28T00:38:54;102919.78;;;2.19;100.00
5996;BME280;3026;53.612;7.278;2023-01-28T00:41:23;102924.25;;;2.20;100.00
5996;BME280;3026;53.612;7.278;2023-01-28T00:43:51;102916.28;;;2.17;100.00
5996;BME280;3026;53.612;7.278;2023-01-28T00:46:18;102912.00;;;2.13;100.00
5996;BME280;3026;53.612;7.278;2023-01-28T00:48:46;102902.31;;;2.09;100.00
5996;BME280;3026;53.612;7.278;2023-01-28T00:51:15;102916.56;;;2.11;100.00
5996;BME280;3026;53.612;7.278;2023-01-28T00:53:42;102907.81;;;2.06;100.00
5996;BME280;3026;53.612;7.278;2023-01-28T00:56:13;102918.47;;;2.09;100.00
5996;BME280;3026;53.612;7.278;2023-01-28T00:58:40;102918.56;;;2.06;100.00
5996;BME280;3026;53.612;7.278;2023-01-28T01:01:08;102916.97;;;2.02;100.00
5996;BME280;3026;53.612;7.278;2023-01-28T01:03:36;102912.69;;;1.98;100.00
5996;BME280;3026;53.612;7.278;2023-01-28T01:06:03;102925.38;;;1.94;100.00
5996;BME280;3026;53.612;7.278;2023-01-28T01:08:31;102921.00;;;1.92;100.00
5996;BME280;3026;53.612;7.278;2023-01-28T01:11:00;102916.50;;;1.92;100.00
5996;BME280;3026;53.612;7.278;2023-01-28T01:13:30;102916.50;;;1.92;100.00
5996;BME280;3026;53.612;7.278;2023-01-28T01:16:03;102919.09;;;1.94;100.00
5996;BME280;3026;53.612;7.278;2023-01-28T01:18:31;102916.50;;;1.92;100.00
5996;BME280;3026;53.612;7.278;2023-01-28T01:20:58;102924.50;;;1.94;100.00
5996;BME280;3026;53.612;7.278;2023-01-28T01:23:26;102926.00;;;2.01;100.00
5996;BME280;3026;53.612;7.278;2023-01-28T01:25:53;102928.69;;;2.01;100.00
5996;BME280;3026;53.612;7.278;2023-01-28T01:28:20;102925.03;;;2.02;100.00
5996;BME280;3026;53.612;7.278;2023-01-28T01:30:49;102927.72;;;2.02;100.00
5996;BME280;3026;53.612;7.278;2023-01-28T01:33:24;102925.13;;;2.00;100.00
5996;BME280;3026;53.612;7.278;2023-01-28T01:35:52;102917.13;;;1.99;100.00
5996;BME280;3026;53.612;7.278;2023-01-28T01:38:19;102929.69;;;1.98;100.00
5996;BME280;3026;53.612;7.278;2023-01-28T01:40:46;102919.09;;;1.94;100.00
5996;BME280;3026;53.612;7.278;2023-01-28T01:43:15;102913.88;;;1.91;100.00
5996;BME280;3026;53.612;7.278;2023-01-28T01:45:43;102919.25;;;1.91;100.00
5996;BME280;3026;53.612;7.278;2023-01-28T01:48:17;102920.06;;;1.93;100.00
5996;BME280;3026;53.612;7.278;2023-01-28T01:50:49;102925.38;;;1.94;100.00
5996;BME280;3026;53.612;7.278;2023-01-28T01:53:19;102925.38;;;1.94;100.00
5996;BME280;3026;53.612;7.278;2023-01-28T01:55:50;102921.00;;;1.92;100.00
5996;BME280;3026;53.612;7.278;2023-01-28T01:58:21;102929.75;;;1.97;100.00
5996;BME280;3026;53.612;7.278;2023-01-28T02:00:49;102929.63;;;2.00;100.00
5996;BME280;3026;53.612;7.278;2023-01-28T02:03:21;102923.22;;;2.02;100.00
5996;BME280;3026;53.612;7.278;2023-01-28T02:05:50;102912.59;;;1.99;100.00
5996;BME280;3026;53.612;7.278;2023-01-28T02:08:17;102919.59;;;2.03;100.00
5996;BME280;3026;53.612;7.278;2023-01-28T02:10:48;102923.28;;;2.01;100.00
5996;BME280;3026;53.612;7.278;2023-01-28T02:13:18;102933.13;;;2.02;100.00
5996;BME280;3026;53.612;7.278;2023-01-28T02:15:46;102921.47;;;2.01;100.00
5996;BME280;3026;53.612;7.278;2023-01-28T02:18:15;102929.34;;;2.06;100.00
5996;BME280;3026;53.612;7.278;2023-01-28T02:20:57;102933.78;;;2.07;100.00
5996;BME280;3026;53.612;7.278;2023-01-28T02:23:39;102923.94;;;2.06;100.00
5996;BME280;3026;53.612;7.278;2023-01-28T02:26:30;102918.47;;;2.09;100.00
5996;BME280;3026;53.612;7.278;2023-01-28T02:29:06;102927.44;;;2.08;100.00
5996;BME280;3026;53.612;7.278;2023-01-28T02:31:39;102927.44;;;2.08;100.00
5996;BME280;3026;53.612;7.278;2023-01-28T02:34:14;102922.97;;;2.09;100.00
5996;BME280;3026;53.612;7.278;2023-01-28T02:36:47;102919.38;;;2.08;100.00
5996;BME280;3026;53.612;7.278;2023-01-28T02:39:18;102914.81;;;2.10;100.00
5996;BME280;3026;53.612;7.278;2023-01-28T02:41:54;102918.31;;;2.12;100.00
5996;BME280;3026;53.612;7.278;2023-01-28T02:44:24;102911.13;;;2.13;100.00
5996;BME280;3026;53.612;7.278;2023-01-28T02:46:52;102916.44;;;2.14;100.00
5996;BME280;3026;53.612;7.278;2023-01-28T02:49:39;102909.31;;;2.13;100.00
5996;BME280;3026;53.612;7.278;2023-01-28T02:52:16;102907.41;;;2.15;100.00
5996;BME280;3026;53.612;7.278;2023-01-28T02:54:52;102914.53;;;2.16;100.00
5996;BME280;3026;53.612;7.278;2023-01-28T02:57:31;102909.16;;;2.16;100.00
5996;BME280;3026;53.612;7.278;2023-01-28T03:00:08;102905.66;;;2.14;100.00
5996;BME280;3026;53.612;7.278;2023-01-28T03:02:41;102907.41;;;2.15;100.00
5996;BME280;3026;53.612;7.278;2023-01-28T03:05:16;102902.91;;;2.16;100.00
5996;BME280;3026;53.612;7.278;2023-01-28T03:07:47;102896.66;;;2.15;100.00
5996;BME280;3026;53.612;7.278;2023-01-28T03:10:19;102882.38;;;2.13;100.00
5996;BME280;3026;53.612;7.278;2023-01-28T03:12:48;102893.00;;;2.16;100.00
5996;BME280;3026;53.612;7.278;2023-01-28T03:15:38;102898.38;;;2.16;100.00
5996;BME280;3026;53.612;7.278;2023-01-28T03:18:26;102895.78;;;2.15;100.00
5996;BME280;3026;53.612;7.278;2023-01-28T03:21:14;102908.13;;;2.19;100.00
5996;BME280;3026;53.612;7.278;2023-01-28T03:24:04;102912.66;;;2.18;100.00
5996;BME280;3026;53.612;7.278;2023-01-28T03:26:57;102904.66;;;2.17;100.00
5996;BME280;3026;53.612;7.278;2023-01-28T03:29:44;102910.91;;;2.17;100.00
5996;BME280;3026;53.612;7.278;2023-01-28T03:32:32;102917.09;;;2.19;100.00
5996;BME280;3026;53.612;7.278;2023-01-28T03:35:19;102909.00;;;2.19;100.00
5996;BME280;3026;53.612;7.278;2023-01-28T03:38:06;102916.19;;;2.20;100.00
5996;BME280;3026;53.612;7.278;2023-01-28T03:40:49;102918.88;;;2.20;100.00
5996;BME280;3026;53.612;7.278;2023-01-28T03:43:16;102910.78;;;2.20;100.00
5996;BME280;3026;53.612;7.278;2023-01-28T03:45:43;102909.88;;;2.20;100.00
5996;BME280;3026;53.612;7.278;2023-01-28T03:48:12;102908.22;;;2.17;100.00
5996;BME280;3026;53.612;7.278;2023-01-28T03:50:39;102926.03;;;2.20;100.00
5996;BME280;3026;53.612;7.278;2023-01-28T03:53:06;102923.41;;;2.18;100.00
5996;BME280;3026;53.612;7.278;2023-01-28T03:55:38;102927.94;;;2.18;100.00
5996;BME280;3026;53.612;7.278;2023-01-28T03:58:05;102919.78;;;2.19;100.00
5996;BME280;3026;53.612;7.278;2023-01-28T04:00:32;102914.63;;;2.15;100.00
5996;BME280;3026;53.612;7.278;2023-01-28T04:03:02;102935.94;;;2.19;100.00
5996;BME280;3026;53.612;7.278;2023-01-28T04:05:42;102921.66;;;2.17;100.00
5996;BME280;3026;53.612;7.278;2023-01-28T04:08:09;102914.41;;;2.19;100.00
5996;BME280;3026;53.612;7.278;2023-01-28T04:10:37;102912.47;;;2.23;100.00
5996;BME280;3026;53.612;7.278;2023-01-28T04:13:04;102910.78;;;2.20;100.00
5996;BME280;3026;53.612;7.278;2023-01-28T04:15:32;102903.50;;;2.22;100.00
5996;BME280;3026;53.612;7.278;2023-01-28T04:18:01;102907.16;;;2.21;100.00
5996;BME280;3026;53.612;7.278;2023-01-28T04:20:28;102908.75;;;2.25;100.00
5996;BME280;3026;53.612;7.278;2023-01-28T04:22:56;102909.69;;;2.24;100.00
5996;BME280;3026;53.612;7.278;2023-01-28T04:25:23;102893.56;;;2.24;100.00
5996;BME280;3026;53.612;7.278;2023-01-28T04:27:50;102896.25;;;2.24;100.00
5996;BME280;3026;53.612;7.278;2023-01-28T04:30:17;102894.41;;;2.25;100.00
5996;BME280;3026;53.612;7.278;2023-01-28T04:32:45;102897.97;;;2.25;100.00
5996;BME280;3026;53.612;7.278;2023-01-28T04:35:12;102897.97;;;2.25;100.00
5996;BME280;3026;53.612;7.278;2023-01-28T04:37:40;102896.25;;;2.24;100.00
5996;BME280;3026;53.612;7.278;2023-01-28T04:40:10;102885.41;;;2.26;100.00
5996;BME280;3026;53.612;7.278;2023-01-28T04:42:37;102892.59;;;2.25;100.00
5996;BME280;3026;53.612;7.278;2023-01-28T04:45:06;102889.13;;;2.23;100.00
5996;BME280;3026;53.612;7.278;2023-01-28T04:47:33;102887.22;;;2.25;100.00
5996;BME280;3026;53.612;7.278;2023-01-28T04:49:59;102878.41;;;2.22;100.00
5996;BME280;3026;53.612;7.278;2023-01-28T04:52:26;102882.09;;;2.19;100.00
5996;BME280;3026;53.612;7.278;2023-01-28T04:54:53;102866.97;;;2.17;100.00
5996;BME280;3026;53.612;7.278;2023-01-28T04:57:22;102875.09;;;2.15;100.00
5996;BME280;3026;53.612;7.278;2023-01-28T04:59:49;102871.69;;;2.12;100.00
5996;BME280;3026;53.612;7.278;2023-01-28T05:02:15;102870.03;;;2.09;100.00
5996;BME280;3026;53.612;7.278;2023-01-28T05:04:42;102871.88;;;2.07;100.00
5996;BME280;3026;53.612;7.278;2023-01-28T05:07:09;102868.38;;;2.05;100.00
5996;BME280;3026;53.612;7.278;2023-01-28T05:09:36;102884.53;;;2.05;100.00
5996;BME280;3026;53.612;7.278;2023-01-28T05:12:03;102886.41;;;2.03;100.00
5996;BME280;3026;53.612;7.278;2023-01-28T05:14:31;102879.16;;;2.05;100.00
5996;BME280;3026;53.612;7.278;2023-01-28T05:16:58;102867.59;;;2.03;100.00
5996;BME280;3026;53.612;7.278;2023-01-28T05:19:25;102859.66;;;2.00;100.00
5996;BME280;3026;53.612;7.278;2023-01-28T05:21:52;102857.03;;;1.98;100.00
5996;BME280;3026;53.612;7.278;2023-01-28T05:24:19;102850.03;;;1.94;100.00
5996;BME280;3026;53.612;7.278;2023-01-28T05:26:46;102860.06;;;1.91;100.00
5996;BME280;3026;53.612;7.278;2023-01-28T05:29:13;102875.25;;;1.92;100.00
5996;BME280;3026;53.612;7.278;2023-01-28T05:31:41;102881.59;;;1.91;100.00
5996;BME280;3026;53.612;7.278;2023-01-28T05:34:08;102877.22;;;1.88;100.00
5996;BME280;3026;53.612;7.278;2023-01-28T05:36:35;102875.41;;;1.89;100.00
5996;BME280;3026;53.612;7.278;2023-01-28T05:39:02;102870.91;;;1.89;100.00
5996;BME280;3026;53.612;7.278;2023-01-28T05:41:28;102876.19;;;1.91;100.00
5996;BME280;3026;53.612;7.278;2023-01-28T05:43:55;102868.13;;;1.91;100.00
5996;BME280;3026;53.612;7.278;2023-01-28T05:46:22;102863.84;;;1.87;100.00
5996;BME280;3026;53.612;7.278;2023-01-28T05:48:51;102864.81;;;1.84;100.00
5996;BME280;3026;53.612;7.278;2023-01-28T05:51:17;102862.13;;;1.84;100.00
5996;BME280;3026;53.612;7.278;2023-01-28T05:53:44;102864.88;;;1.83;100.00
5996;BME280;3026;53.612;7.278;2023-01-28T05:56:11;102861.31;;;1.82;100.00
5996;BME280;3026;53.612;7.278;2023-01-28T05:58:38;102862.34;;;1.80;100.00
5996;BME280;3026;53.612;7.278;2023-01-28T06:01:05;102881.97;;;1.82;100.00
5996;BME280;3026;53.612;7.278;2023-01-28T06:03:32;102872.97;;;1.83;100.00
5996;BME280;3026;53.612;7.278;2023-01-28T06:06:00;102869.31;;;1.84;100.00
5996;BME280;3026;53.612;7.278;2023-01-28T06:08:27;102872.09;;;1.82;100.00
5996;BME280;3026;53.612;7.278;2023-01-28T06:10:54;102880.97;;;1.84;100.00
5996;BME280;3026;53.612;7.278;2023-01-28T06:13:21;102872.97;;;1.83;100.00
5996;BME280;3026;53.612;7.278;2023-01-28T06:15:48;102876.53;;;1.83;100.00
5996;BME280;3026;53.612;7.278;2023-01-28T06:18:15;102883.72;;;1.83;100.00
5996;BME280;3026;53.612;7.278;2023-01-28T06:20:42;102885.47;;;1.84;100.00
5996;BME280;3026;53.612;7.278;2023-01-28T06:23:10;102877.41;;;1.84;100.00
5996;BME280;3026;53.612;7.278;2023-01-28T06:25:37;102872.97;;;1.83;100.00
5996;BME280;3026;53.612;7.278;2023-01-28T06:28:04;102868.53;;;1.82;100.00
5996;BME280;3026;53.612;7.278;2023-01-28T06:30:31;102874.84;;;1.81;100.00
5996;BME280;3026;53.612;7.278;2023-01-28T06:32:58;102880.38;;;1.78;100.00
5996;BME280;3026;53.612;7.278;2023-01-28T06:35:25;102871.50;;;1.75;100.00
5996;BME280;3026;53.612;7.278;2023-01-28T06:37:52;102871.59;;;1.72;100.00
5996;BME280;3026;53.612;7.278;2023-01-28T06:40:21;102870.00;;;1.68;100.00
5996;BME280;3026;53.612;7.278;2023-01-28T06:42:49;102895.00;;;1.70;100.00
5996;BME280;3026;53.612;7.278;2023-01-28T06:45:17;102891.53;;;1.68;100.00
5996;BME280;3026;53.612;7.278;2023-01-28T06:47:45;102888.03;;;1.66;100.00
5996;BME280;3026;53.612;7.278;2023-01-28T06:50:11;102881.94;;;1.61;100.00
5996;BME280;3026;53.612;7.278;2023-01-28T06:52:38;102890.00;;;1.61;100.00
5996;BME280;3026;53.612;7.278;2023-01-28T06:55:06;102884.78;;;1.58;100.00
5996;BME280;3026;53.612;7.278;2023-01-28T06:57:36;102897.41;;;1.56;100.00
5996;BME280;3026;53.612;7.278;2023-01-28T07:00:04;102901.03;;;1.55;100.00
5996;BME280;3026;53.612;7.278;2023-01-28T07:02:33;102903.88;;;1.52;100.00
5996;BME280;3026;53.612;7.278;2023-01-28T07:05:00;102915.44;;;1.54;100.00
5996;BME280;3026;53.612;7.278;2023-01-28T07:07:27;102907.44;;;1.53;100.00
5996;BME280;3026;53.612;7.278;2023-01-28T07:09:54;102900.34;;;1.50;100.00
5996;BME280;3026;53.612;7.278;2023-01-28T07:12:21;102898.72;;;1.46;100.00
5996;BME280;3026;53.612;7.278;2023-01-28T07:14:50;102892.69;;;1.41;100.00
5996;BME280;3026;53.612;7.278;2023-01-28T07:17:17;102900.03;;;1.36;100.00
5996;BME280;3026;53.612;7.278;2023-01-28T07:19:44;102880.69;;;1.28;100.00
5996;BME280;3026;53.612;7.278;2023-01-28T07:22:11;102898.59;;;1.27;100.00
5996;BME280;3026;53.612;7.278;2023-01-28T07:24:38;102898.81;;;1.23;100.00
5996;BME280;3026;53.612;7.278;2023-01-28T07:27:05;102891.09;;;1.13;100.00
5996;BME280;3026;53.612;7.278;2023-01-28T07:29:32;102900.03;;;1.14;100.00
5996;BME280;3026;53.612;7.278;2023-01-28T07:32:01;102901.19;;;1.08;100.00
5996;BME280;3026;53.612;7.278;2023-01-28T07:34:29;102910.31;;;1.04;100.00
5996;BME280;3026;53.612;7.278;2023-01-28T07:36:56;102917.53;;;1.02;100.00
5996;BME280;3026;53.612;7.278;2023-01-28T07:39:23;102922.91;;;1.02;100.00
5996;BME280;3026;53.612;7.278;2023-01-28T07:41:50;102915.91;;;0.98;100.00
5996;BME280;3026;53.612;7.278;2023-01-28T07:44:17;102921.16;;;1.01;100.00
5996;BME280;3026;53.612;7.278;2023-01-28T07:46:44;102912.16;;;1.02;100.00
5996;BME280;3026;53.612;7.278;2023-01-28T07:49:12;102921.94;;;1.05;100.00
5996;BME280;3026;53.612;7.278;2023-01-28T07:51:40;102927.31;;;1.05;100.00
5996;BME280;3026;53.612;7.278;2023-01-28T07:54:07;102935.31;;;1.06;100.00
5996;BME280;3026;53.612;7.278;2023-01-28T07:56:34;102933.28;;;1.11;100.00
5996;BME280;3026;53.612;7.278;2023-01-28T07:59:02;102930.59;;;1.11;100.00
5996;BME280;3026;53.612;7.278;2023-01-28T08:01:29;102936.91;;;1.10;100.00
5996;BME280;3026;53.612;7.278;2023-01-28T08:03:56;102940.34;;;1.14;100.00
5996;BME280;3026;53.612;7.278;2023-01-28T08:06:24;102948.34;;;1.15;100.00
5996;BME280;3026;53.612;7.278;2023-01-28T08:08:51;102967.06;;;1.19;100.00
5996;BME280;3026;53.612;7.278;2023-01-28T08:11:18;102967.06;;;1.19;100.00
5996;BME280;3026;53.612;7.278;2023-01-28T08:13:45;102952.69;;;1.20;100.00
5996;BME280;3026;53.612;7.278;2023-01-28T08:16:12;102957.00;;;1.24;100.00
5996;BME280;3026;53.612;7.278;2023-01-28T08:18:39;102959.56;;;1.27;100.00
5996;BME280;3026;53.612;7.278;2023-01-28T08:21:06;102970.19;;;1.30;100.00
5996;BME280;3026;53.612;7.278;2023-01-28T08:23:34;102964.03;;;1.28;100.00
5996;BME280;3026;53.612;7.278;2023-01-28T08:26:02;102962.06;;;1.31;100.00
5996;BME280;3026;53.612;7.278;2023-01-28T08:28:29;102972.63;;;1.36;100.00
5996;BME280;3026;53.612;7.278;2023-01-28T08:30:59;102977.88;;;1.39;100.00
5996;BME280;3026;53.612;7.278;2023-01-28T08:33:26;102988.63;;;1.39;100.00
5996;BME280;3026;53.612;7.278;2023-01-28T08:35:53;102993.09;;;1.40;100.00
5996;BME280;3026;53.612;7.278;2023-01-28T08:38:20;102996.59;;;1.42;100.00
5996;BME280;3026;53.612;7.278;2023-01-28T08:40:49;102992.03;;;1.44;100.00
5996;BME280;3026;53.612;7.278;2023-01-28T08:43:18;102981.34;;;1.42;100.00
5996;BME280;3026;53.612;7.278;2023-01-28T08:45:46;102974.81;;;1.48;100.00
5996;BME280;3026;53.612;7.278;2023-01-28T08:48:15;102971.09;;;1.52;100.00
5996;BME280;3026;53.612;7.278;2023-01-28T08:50:43;102978.09;;;1.56;100.00
5996;BME280;3026;53.612;7.278;2023-01-28T08:53:15;102968.06;;;1.60;100.00
5996;BME280;3026;53.612;7.278;2023-01-28T08:55:43;102973.94;;;1.69;100.00
5996;BME280;3026;53.612;7.278;2023-01-28T08:58:13;102973.72;;;1.75;100.00
5996;BME280;3026;53.612;7.278;2023-01-28T09:00:41;102973.31;;;1.85;100.00
5996;BME280;3026;53.612;7.278;2023-01-28T09:03:08;102974.81;;;1.92;100.00
5996;BME280;3026;53.612;7.278;2023-01-28T09:05:36;102975.44;;;1.98;100.00
5996;BME280;3026;53.612;7.278;2023-01-28T09:08:04;102976.72;;;2.10;100.00
5996;BME280;3026;53.612;7.278;2023-01-28T09:10:32;102971.88;;;2.18;100.00
5996;BME280;3026;53.612;7.278;2023-01-28T09:13:03;102966.09;;;2.27;100.00
5996;BME280;3026;53.612;7.278;2023-01-28T09:15:32;102973.47;;;2.43;100.00
5996;BME280;3026;53.612;7.278;2023-01-28T09:17:59;102975.38;;;2.61;100.00
5996;BME280;3026;53.612;7.278;2023-01-28T09:20:26;102972.19;;;2.72;100.00
5996;BME280;3026;53.612;7.278;2023-01-28T09:22:53;102981.19;;;2.91;100.00
5996;BME280;3026;53.612;7.278;2023-01-28T09:25:20;102971.66;;;3.03;100.00
5996;BME280;3026;53.612;7.278;2023-01-28T09:27:47;102981.97;;;3.12;100.00
5996;BME280;3026;53.612;7.278;2023-01-28T09:30:14;102984.41;;;3.18;100.00
5996;BME280;3026;53.612;7.278;2023-01-28T09:32:43;102986.06;;;3.20;100.00
5996;BME280;3026;53.612;7.278;2023-01-28T09:35:10;102982.31;;;3.25;100.00
5996;BME280;3026;53.612;7.278;2023-01-28T09:37:39;102973.97;;;3.29;100.00
5996;BME280;3026;53.612;7.278;2023-01-28T09:40:10;102975.56;;;3.33;100.00
5996;BME280;3026;53.612;7.278;2023-01-28T09:42:49;102971.78;;;3.37;100.00
5996;BME280;3026;53.612;7.278;2023-01-28T09:45:25;102959.09;;;3.39;100.00
5996;BME280;3026;53.612;7.278;2023-01-28T09:47:58;102958.88;;;3.44;100.00
5996;BME280;3026;53.612;7.278;2023-01-28T09:50:31;102953.38;;;3.45;100.00
5996;BME280;3026;53.612;7.278;2023-01-28T09:53:02;102962.31;;;3.47;100.00
5996;BME280;3026;53.612;7.278;2023-01-28T09:55:32;102973.91;;;3.49;100.00
5996;BME280;3026;53.612;7.278;2023-01-28T09:58:00;102983.88;;;3.47;100.00
5996;BME280;3026;53.612;7.278;2023-01-28T10:00:32;102969.44;;;3.48;100.00
5996;BME280;3026;53.612;7.278;2023-01-28T10:03:18;102947.03;;;3.46;100.00
5996;BME280;3026;53.612;7.278;2023-01-28T10:05:52;102938.81;;;3.49;100.00
5996;BME280;3026;53.612;7.278;2023-01-28T10:08:36;102917.25;;;3.49;100.00
5996;BME280;3026;53.612;7.278;2023-01-28T10:11:13;102931.38;;;3.55;100.00
5996;BME280;3026;53.612;7.278;2023-01-28T10:13:45;102906.28;;;3.53;100.00
5996;BME280;3026;53.612;7.278;2023-01-28T10:16:25;102911.69;;;3.53;100.00
5996;BME280;3026;53.612;7.278;2023-01-28T10:19:00;102902.66;;;3.54;100.00
5996;BME280;3026;53.612;7.278;2023-01-28T10:21:32;102898.84;;;3.58;100.00
5996;BME280;3026;53.612;7.278;2023-01-28T10:24:05;102904.09;;;3.61;100.00
5996;BME280;3026;53.612;7.278;2023-01-28T10:26:36;102893.44;;;3.58;100.00
5996;BME280;3026;53.612;7.278;2023-01-28T10:29:11;102883.22;;;3.64;100.00
5996;BME280;3026;53.612;7.278;2023-01-28T10:31:42;102887.56;;;3.67;100.00
5996;BME280;3026;53.612;7.278;2023-01-28T10:34:11;102876.78;;;3.67;100.00
5996;BME280;3026;53.612;7.278;2023-01-28T10:36:38;102885.53;;;3.72;100.00
5996;BME280;3026;53.612;7.278;2023-01-28T10:39:05;102894.09;;;3.80;100.00
5996;BME280;3026;53.612;7.278;2023-01-28T10:41:33;102890.44;;;3.81;100.00
5996;BME280;3026;53.612;7.278;2023-01-28T10:44:00;102888.63;;;3.81;100.00
5996;BME280;3026;53.612;7.278;2023-01-28T10:46:29;102884.75;;;3.87;100.00
5996;BME280;3026;53.612;7.278;2023-01-28T10:49:02;102893.63;;;3.89;100.00
5996;BME280;3026;53.612;7.278;2023-01-28T10:51:35;102891.88;;;3.88;100.00
5996;BME280;3026;53.612;7.278;2023-01-28T10:54:13;102900.75;;;3.90;100.00
5996;BME280;3026;53.612;7.278;2023-01-28T10:56:43;102898.84;;;3.92;100.00
5996;BME280;3026;53.612;7.278;2023-01-28T10:59:19;102892.38;;;3.96;100.00
5996;BME280;3026;53.612;7.278;2023-01-28T11:01:49;102894.91;;;3.99;100.00
5996;BME280;3026;53.612;7.278;2023-01-28T11:04:20;102899.44;;;3.99;100.00
5996;BME280;3026;53.612;7.278;2023-01-28T11:06:56;102902.03;;;4.00;100.00
5996;BME280;3026;53.612;7.278;2023-01-28T11:09:25;102902.75;;;4.04;100.00
5996;BME280;3026;53.612;7.278;2023-01-28T11:11:52;102895.28;;;4.09;100.00
5996;BME280;3026;53.612;7.278;2023-01-28T11:14:21;102905.84;;;4.14;100.00
5996;BME280;3026;53.612;7.278;2023-01-28T11:16:49;102898.59;;;4.14;100.00
5996;BME280;3026;53.612;7.278;2023-01-28T11:19:18;102906.50;;;4.19;100.00
5996;BME280;3026;53.612;7.278;2023-01-28T11:21:53;102909.81;;;4.24;100.00
5996;BME280;3026;53.612;7.278;2023-01-28T11:24:25;102909.81;;;4.24;100.00
5996;BME280;3026;53.612;7.278;2023-01-28T11:26:55;102909.63;;;4.27;100.00
5996;BME280;3026;53.612;7.278;2023-01-28T11:29:29;102899.66;;;4.29;100.00
5996;BME280;3026;53.612;7.278;2023-01-28T11:31:58;102903.91;;;4.33;100.00
5996;BME280;3026;53.612;7.278;2023-01-28T11:34:27;102894.06;;;4.32;100.00
5996;BME280;3026;53.612;7.278;2023-01-28T11:37:01;102887.72;;;4.33;100.00
5996;BME280;3026;53.612;7.278;2023-01-28T11:39:30;102875.69;;;4.38;100.00
5996;BME280;3026;53.612;7.278;2023-01-28T11:42:10;102866.03;;;4.34;100.00
5996;BME280;3026;53.612;7.278;2023-01-28T11:44:38;102870.63;;;4.32;100.00
5996;BME280;3026;53.612;7.278;2023-01-28T11:50:17;102863.41;;;4.33;100.00
5996;BME280;3026;53.612;7.278;2023-01-28T11:53:09;102865.75;;;4.39;100.00
5996;BME280;3026;53.612;7.278;2023-01-28T11:55:49;102864.47;;;4.46;100.00
5996;BME280;3026;53.612;7.278;2023-01-28T11:58:20;102858.22;;;4.61;100.00
5996;BME280;3026;53.612;7.278;2023-01-28T12:00:57;102859.75;;;4.98;100.00
5996;BME280;3026;53.612;7.278;2023-01-28T12:03:38;102840.03;;;5.12;100.00
5996;BME280;3026;53.612;7.278;2023-01-28T12:06:23;102845.38;;;5.44;100.00
5996;BME280;3026;53.612;7.278;2023-01-28T12:09:06;102848.38;;;5.69;100.00
5996;BME280;3026;53.612;7.278;2023-01-28T12:11:46;102843.44;;;5.92;100.00
5996;BME280;3026;53.612;7.278;2023-01-28T12:14:40;102844.81;;;6.13;100.00
5996;BME280;3026;53.612;7.278;2023-01-28T12:17:16;102845.00;;;6.24;100.00
5996;BME280;3026;53.612;7.278;2023-01-28T12:19:55;102841.16;;;6.14;100.00
5996;BME280;3026;53.612;7.278;2023-01-28T12:22:38;102845.81;;;6.55;100.00
5996;BME280;3026;53.612;7.278;2023-01-28T12:25:25;102827.88;;;6.66;100.00
5996;BME280;3026;53.612;7.278;2023-01-28T12:28:00;102833.00;;;6.85;100.00
5996;BME280;3026;53.612;7.278;2023-01-28T12:30:39;102830.63;;;6.93;100.00
5996;BME280;3026;53.612;7.278;2023-01-28T12:33:28;102836.81;;;7.10;100.00
5996;BME280;3026;53.612;7.278;2023-01-28T12:36:09;102823.69;;;6.89;100.00
5996;BME280;3026;53.612;7.278;2023-01-28T12:38:47;102837.88;;;7.07;100.00
5996;BME280;3026;53.612;7.278;2023-01-28T12:41:23;102837.25;;;6.89;100.00
5996;BME280;3026;53.612;7.278;2023-01-28T12:43:55;102827.59;;;6.57;100.00
5996;BME280;3026;53.612;7.278;2023-01-28T12:46:31;102837.03;;;6.37;100.00
5996;BME280;3026;53.612;7.278;2023-01-28T12:49:04;102833.81;;;6.16;100.00
5996;BME280;3026;53.612;7.278;2023-01-28T12:51:39;102845.41;;;6.04;100.00
5996;BME280;3026;53.612;7.278;2023-01-28T12:54:15;102837.41;;;5.86;100.00
5996;BME280;3026;53.612;7.278;2023-01-28T12:56:50;102842.38;;;5.78;100.00
5996;BME280;3026;53.612;7.278;2023-01-28T12:59:21;102847.41;;;5.70;100.00
5996;BME280;3026;53.612;7.278;2023-01-28T13:01:56;102842.56;;;5.61;100.00
5996;BME280;3026;53.612;7.278;2023-01-28T13:04:33;102832.78;;;5.59;100.00
5996;BME280;3026;53.612;7.278;2023-01-28T13:07:04;102824.75;;;5.57;100.00
5996;BME280;3026;53.612;7.278;2023-01-28T13:09:35;102826.84;;;5.52;100.00
5996;BME280;3026;53.612;7.278;2023-01-28T13:12:04;102822.78;;;5.45;100.00
5996;BME280;3026;53.612;7.278;2023-01-28T13:14:32;102829.13;;;5.44;100.00
5996;BME280;3026;53.612;7.278;2023-01-28T13:17:10;102827.41;;;5.43;100.00
5996;BME280;3026;53.612;7.278;2023-01-28T13:19:39;102826.03;;;5.36;100.00
5996;BME280;3026;53.612;7.278;2023-01-28T13:22:12;102820.63;;;5.36;100.00
5996;BME280;3026;53.612;7.278;2023-01-28T13:24:39;102817.31;;;5.31;100.00
5996;BME280;3026;53.612;7.278;2023-01-28T13:27:12;102825.25;;;5.34;100.00
5996;BME280;3026;53.612;7.278;2023-01-28T13:29:46;102815.22;;;5.36;100.00
5996;BME280;3026;53.612;7.278;2023-01-28T13:32:29;102819.84;;;5.34;100.00